Pilote(s) en ligne...
 F-JMJM (Jean-Manuel)  
 F-GMAN (Gilles)  

Compagnie Fsx-France ! Un nouveau look pour votre VA, par : Julien & Co

 METAR ET TAF INFORMATION
METAR FOR NZWN :
NZWN 041830Z AUTO 31012KT 280V340 9999 NCD 15/06 Q0995

 AÉROPORT DE AÉROPORT

 INFORMATIONS DE PISTE
Piste 16 Longueur de la piste 1936 m = 6352 ft Largeur de la piste 45 m = 148 ft
Élévation de la piste 41 ft Seuil de la piste déplacés 210 ft Runway heading 183
Piste 34 Longueur de la piste 1936 m = 6352 ft Largeur de la piste 45 m = 148 ft
Élévation de la piste 23 ft Seuil de la piste déplacés 210 ft Runway heading 3
 AÉROPORT FRÉQUENCES
Type APP Nom APP Féquence 122.3 MHZ
Type ATIS Nom ATIS Féquence 126.9 MHZ
Type GND Nom GND Féquence 121.9 MHZ
Type TWR Nom TWR Féquence 118.8 MHZ

 AIDES A LA NAVIGATION
Type NDB Nom Newlands Féquence 358 KHZ
Type NDB Nom Titahi Bay Féquence 234 KHZ
Type VOR-DME Nom Wellington Féquence 112300 KHZ
Type NDB Nom Wellington Féquence 298 KHZ